Time;durP1;ratioP1;P1;durP2;ratioP2;P2;SDS_P1;SDS_P2;PMS_P1;PMS_P2;Temp;Humidity;BMP_temperature;BMP_pressure;BME280_temperature;BME280_humidity;BME280_pressure;Samples;Min_cycle;Max_cycle;Signal;HPM_P1;HPM_P2
2022/02/17 00:00:43;;;;;;;25.60;3.55;;;10.00;99.90;;;;;;5084853;28;20083;-80
2022/02/17 00:03:10;;;;;;;19.40;3.08;;;10.10;99.90;;;;;;5059774;28;20048;-80
2022/02/17 00:05:36;;;;;;;26.00;3.92;;;10.00;99.90;;;;;;5073455;28;20043;-80
2022/02/17 00:08:02;;;;;;;24.65;3.53;;;10.00;99.90;;;;;;5089243;28;20062;-79
2022/02/17 00:10:28;;;;;;;22.90;3.30;;;10.10;99.90;;;;;;5071983;27;20059;-80
2022/02/17 00:12:57;;;;;;;24.95;3.85;;;10.10;99.90;;;;;;5120572;27;20127;-79
2022/02/17 00:15:26;;;;;;;24.38;3.72;;;10.20;99.90;;;;;;5091903;28;20043;-80
2022/02/17 00:17:52;;;;;;;20.73;3.08;;;10.20;99.90;;;;;;5088890;28;20051;-80
2022/02/17 00:20:18;;;;;;;18.20;2.75;;;10.20;99.90;;;;;;5121783;27;20036;-80
2022/02/17 00:22:44;;;;;;;25.40;3.83;;;10.20;99.90;;;;;;5087325;28;20440;-78
2022/02/17 00:25:10;;;;;;;20.45;3.33;;;10.50;99.90;;;;;;5101916;28;20043;-78
2022/02/17 00:27:36;;;;;;;29.17;3.55;;;10.40;99.90;;;;;;5073004;28;20388;-79
2022/02/17 00:30:03;;;;;;;19.83;3.60;;;10.50;99.90;;;;;;5075721;28;20075;-78
2022/02/17 00:32:29;;;;;;;26.55;4.75;;;10.50;99.90;;;;;;5091505;28;20043;-78
2022/02/17 00:34:55;;;;;;;18.20;3.28;;;10.50;99.90;;;;;;5100437;27;20047;-78
2022/02/17 00:37:20;;;;;;;25.92;3.92;;;10.40;99.90;;;;;;5064787;28;20467;-80
2022/02/17 00:39:46;;;;;;;18.48;3.53;;;10.50;99.90;;;;;;5071312;27;20100;-78
2022/02/17 00:42:12;;;;;;;26.67;4.18;;;10.30;99.90;;;;;;5072581;28;20461;-79
2022/02/17 00:44:37;;;;;;;14.15;2.75;;;10.20;99.90;;;;;;5116332;27;20054;-78
2022/02/17 00:47:03;;;;;;;27.10;4.53;;;10.20;99.90;;;;;;5104309;27;20039;-79
2022/02/17 00:49:30;;;;;;;17.52;3.30;;;10.00;99.90;;;;;;5110151;28;20371;-79
2022/02/17 00:51:56;;;;;;;22.75;3.35;;;10.10;99.90;;;;;;5072349;28;20046;-78
2022/02/17 00:54:23;;;;;;;18.63;2.40;;;10.10;99.90;;;;;;5088211;28;20047;-79
2022/02/17 00:56:49;;;;;;;17.85;2.95;;;10.10;99.90;;;;;;5117781;27;20039;-79
2022/02/17 00:59:14;;;;;;;24.85;3.53;;;10.00;99.90;;;;;;5088923;28;20612;-78
2022/02/17 01:01:43;;;;;;;16.13;3.33;;;10.00;99.90;;;;;;5072313;28;20058;-79
2022/02/17 01:04:11;;;;;;;11.90;2.50;;;9.90;99.90;;;;;;5069241;28;20054;-79
2022/02/17 01:06:39;;;;;;;19.42;3.03;;;9.90;99.90;;;;;;5085150;27;20035;-78
2022/02/17 01:09:06;;;;;;;17.48;2.50;;;10.00;99.90;;;;;;5105406;28;20045;-79
2022/02/17 01:11:32;;;;;;;14.20;2.45;;;9.90;99.90;;;;;;5088272;28;20036;-79
2022/02/17 01:13:58;;;;;;;15.05;2.83;;;9.80;99.90;;;;;;5121430;27;20066;-78
2022/02/17 01:16:24;;;;;;;8.70;1.75;;;9.80;99.90;;;;;;5109215;28;20043;-79
2022/02/17 01:18:50;;;;;;;16.45;2.55;;;9.80;99.90;;;;;;5090859;28;20047;-79
2022/02/17 01:21:15;;;;;;;13.32;3.13;;;9.70;99.90;;;;;;5091865;28;20455;-78
2022/02/17 01:23:41;;;;;;;18.88;3.05;;;9.70;99.90;;;;;;5068956;28;20046;-79
2022/02/17 01:26:07;;;;;;;16.00;2.72;;;9.50;99.90;;;;;;5070100;28;20524;-80
2022/02/17 01:28:33;;;;;;;14.32;3.03;;;9.60;99.90;;;;;;5091406;28;20035;-80
2022/02/17 01:30:59;;;;;;;21.13;3.45;;;9.60;99.90;;;;;;5086961;28;20043;-80
2022/02/17 01:33:25;;;;;;;22.33;3.53;;;9.50;99.90;;;;;;5123716;27;20048;-79
2022/02/17 01:35:50;;;;;;;20.30;3.20;;;9.40;99.90;;;;;;5108524;28;20040;-80
2022/02/17 01:38:16;;;;;;;24.60;4.20;;;9.50;99.90;;;;;;5087521;28;20074;-80
2022/02/17 01:40:42;;;;;;;17.75;2.72;;;9.50;99.90;;;;;;5068362;28;20047;-79
2022/02/17 01:43:09;;;;;;;23.27;3.05;;;9.50;99.90;;;;;;5106796;28;20095;-79
2022/02/17 01:45:36;;;;;;;19.70;3.83;;;9.50;99.90;;;;;;5120861;27;20040;-79
2022/02/17 01:48:02;;;;;;;22.75;4.15;;;9.60;99.90;;;;;;5121884;27;20124;-80
2022/02/17 01:50:28;;;;;;;20.48;4.05;;;9.30;99.90;;;;;;5069071;28;20515;-80
2022/02/17 01:52:53;;;;;;;20.25;3.70;;;9.40;99.90;;;;;;5088422;28;20108;-80
2022/02/17 01:55:20;;;;;;;34.60;4.53;;;9.30;99.90;;;;;;5087535;28;20308;-80
2022/02/17 01:57:46;;;;;;;35.28;4.47;;;9.50;99.90;;;;;;5100298;28;20032;-80
2022/02/17 02:00:12;;;;;;;23.45;4.13;;;9.30;99.90;;;;;;5089964;28;20433;-79
2022/02/17 02:02:38;;;;;;;26.42;4.60;;;9.40;99.90;;;;;;5094240;28;20198;-80
2022/02/17 02:05:05;;;;;;;32.95;4.93;;;9.30;99.90;;;;;;5088649;28;20126;-80
2022/02/17 02:07:32;;;;;;;20.52;3.97;;;9.40;99.90;;;;;;5105175;28;20039;-80
2022/02/17 02:09:57;;;;;;;18.08;3.55;;;9.60;99.90;;;;;;5091144;28;20043;-80
2022/02/17 02:12:23;;;;;;;37.92;4.78;;;9.20;99.90;;;;;;5126532;27;20394;-80
2022/02/17 02:14:54;;;;;;;26.88;4.30;;;9.20;99.90;;;;;;5090248;28;20062;-81
2022/02/17 02:17:24;;;;;;;28.13;3.50;;;9.20;99.90;;;;;;5070122;28;20070;-81
2022/02/17 02:19:50;;;;;;;19.75;4.50;;;9.30;99.90;;;;;;5089244;28;20455;-81
2022/02/17 02:22:16;;;;;;;27.73;4.57;;;9.10;99.90;;;;;;5069704;28;20072;-81
2022/02/17 02:24:42;;;;;;;16.92;3.20;;;9.10;99.90;;;;;;5067514;28;20036;-80
2022/02/17 02:27:15;;;;;;;27.02;4.28;;;9.00;99.90;;;;;;5103400;28;20047;-80
2022/02/17 02:29:41;;;;;;;21.10;4.40;;;9.10;99.90;;;;;;5119196;28;20047;-80
2022/02/17 02:32:08;;;;;;;22.63;4.25;;;9.10;99.90;;;;;;5072861;28;20044;-80
2022/02/17 02:34:34;;;;;;;23.88;3.80;;;9.00;99.90;;;;;;5065778;28;20152;-79
2022/02/17 02:36:59;;;;;;;28.40;4.63;;;9.20;99.90;;;;;;5120181;28;20039;-80
2022/02/17 02:39:25;;;;;;;29.25;4.10;;;8.80;99.90;;;;;;5118726;27;20051;-80
2022/02/17 02:41:51;;;;;;;24.33;4.47;;;8.80;99.90;;;;;;5120031;28;20081;-79
2022/02/17 02:44:16;;;;;;;25.50;4.55;;;8.90;99.90;;;;;;5086541;28;20394;-79
2022/02/17 02:46:42;;;;;;;25.40;4.20;;;8.90;99.90;;;;;;5089910;28;20047;-80
2022/02/17 02:49:07;;;;;;;24.73;4.88;;;8.80;99.90;;;;;;5104353;28;20043;-80
2022/02/17 02:51:33;;;;;;;24.88;4.60;;;8.80;99.90;;;;;;5116170;28;20137;-80
2022/02/17 02:53:59;;;;;;;29.58;4.55;;;8.80;99.90;;;;;;5069085;28;20059;-80
2022/02/17 02:56:28;;;;;;;29.65;5.13;;;8.80;99.90;;;;;;5086917;28;20048;-79
2022/02/17 02:58:53;;;;;;;26.00;4.60;;;8.80;99.90;;;;;;5090596;28;20040;-80
2022/02/17 03:01:20;;;;;;;27.92;4.85;;;8.60;99.90;;;;;;5089956;28;20131;-80
2022/02/17 03:03:49;;;;;;;25.35;4.82;;;8.60;99.90;;;;;;5085969;28;20434;-80
2022/02/17 03:06:16;;;;;;;23.65;5.18;;;8.80;99.90;;;;;;5085047;28;20372;-80
2022/02/17 03:08:41;;;;;;;22.90;3.90;;;8.70;99.90;;;;;;5083392;28;20870;-79
2022/02/17 03:11:07;;;;;;;28.58;4.60;;;8.80;99.90;;;;;;5073373;28;20076;-78
2022/02/17 03:13:33;;;;;;;17.90;4.28;;;8.80;99.90;;;;;;5122920;27;20040;-79
2022/02/17 03:15:58;;;;;;;22.25;4.20;;;8.90;99.90;;;;;;5072102;28;20056;-79
2022/02/17 03:18:24;;;;;;;23.23;4.00;;;8.80;99.90;;;;;;5088641;28;20044;-78
2022/02/17 03:20:50;;;;;;;24.77;4.07;;;8.80;99.90;;;;;;5119722;27;20048;-80
2022/02/17 03:23:15;;;;;;;33.08;5.78;;;8.80;99.90;;;;;;5085382;28;20044;-79
2022/02/17 03:25:41;;;;;;;21.75;3.90;;;9.00;99.90;;;;;;5122693;27;20114;-80
2022/02/17 03:28:07;;;;;;;23.15;4.18;;;8.80;99.90;;;;;;5102884;28;20079;-79
2022/02/17 03:30:33;;;;;;;24.83;4.63;;;8.80;99.90;;;;;;5090826;28;20151;-79
2022/02/17 03:33:01;;;;;;;28.70;4.68;;;8.80;99.90;;;;;;5072249;28;20458;-79
2022/02/17 03:35:27;;;;;;;28.80;5.07;;;8.70;99.90;;;;;;5072039;28;20467;-79
2022/02/17 03:37:52;;;;;;;27.58;4.72;;;8.60;99.90;;;;;;5086584;28;20093;-79
2022/02/17 03:40:18;;;;;;;25.55;4.07;;;8.70;99.90;;;;;;5086850;28;20067;-78
2022/02/17 03:42:44;;;;;;;24.15;4.05;;;8.60;99.90;;;;;;5070353;28;20086;-79
2022/02/17 03:45:10;;;;;;;20.33;3.50;;;8.60;99.90;;;;;;5087325;28;20051;-79
2022/02/17 03:47:36;;;;;;;23.33;3.55;;;8.70;99.90;;;;;;5087684;28;20059;-79
2022/02/17 03:50:03;;;;;;;22.63;3.50;;;8.60;99.90;;;;;;5068849;28;20545;-79
2022/02/17 03:52:29;;;;;;;22.88;4.75;;;8.60;99.90;;;;;;5090888;28;20040;-79
2022/02/17 03:54:55;;;;;;;35.97;4.65;;;8.70;99.90;;;;;;5089700;28;20040;-79
2022/02/17 03:57:21;;;;;;;17.90;3.95;;;8.60;99.90;;;;;;5117899;27;20097;-78
2022/02/17 03:59:46;;;;;;;24.88;4.20;;;8.60;99.90;;;;;;5069228;28;20032;-79
2022/02/17 04:02:12;;;;;;;30.38;4.30;;;8.70;99.90;;;;;;5081569;28;20119;-79
2022/02/17 04:04:38;;;;;;;31.90;4.45;;;8.60;99.90;;;;;;5085481;28;20376;-79
2022/02/17 04:07:04;;;;;;;16.10;3.42;;;8.60;99.90;;;;;;5121831;27;20044;-80
2022/02/17 04:09:30;;;;;;;21.35;4.00;;;8.50;99.90;;;;;;5068706;28;20036;-79
2022/02/17 04:11:56;;;;;;;36.60;4.25;;;8.70;99.90;;;;;;5120934;27;20036;-79
2022/02/17 04:14:21;;;;;;;14.55;3.65;;;8.60;99.90;;;;;;5090024;28;20040;-79
2022/02/17 04:16:47;;;;;;;12.32;3.05;;;8.70;99.90;;;;;;5118302;27;20036;-79
2022/02/17 04:19:13;;;;;;;28.05;3.95;;;8.50;99.90;;;;;;5069837;28;20044;-79
2022/02/17 04:21:38;;;;;;;33.00;4.72;;;8.60;99.90;;;;;;5085984;28;20032;-79
2022/02/17 04:24:04;;;;;;;36.88;4.45;;;8.50;99.90;;;;;;5086259;28;20110;-80
2022/02/17 04:26:30;;;;;;;25.95;4.07;;;8.50;99.90;;;;;;5087483;28;20070;-80
2022/02/17 04:28:57;;;;;;;26.00;4.15;;;8.60;99.90;;;;;;5120263;27;20067;-79
2022/02/17 04:31:23;;;;;;;18.00;3.47;;;8.90;99.90;;;;;;5083917;28;20039;-80
2022/02/17 04:33:49;;;;;;;30.92;4.43;;;8.50;99.90;;;;;;5087108;28;20071;-79
2022/02/17 04:36:15;;;;;;;29.48;4.07;;;8.50;99.90;;;;;;5070703;28;20073;-79
2022/02/17 04:38:40;;;;;;;26.50;4.85;;;8.40;99.90;;;;;;5087270;28;20054;-80
2022/02/17 04:43:51;;;;;;;22.13;4.07;;;8.40;99.90;;;;;;5122152;27;20040;-80
2022/02/17 04:46:16;;;;;;;20.60;3.95;;;8.60;99.90;;;;;;5102990;28;20024;-80
2022/02/17 04:48:42;;;;;;;22.23;3.45;;;8.40;99.90;;;;;;5072263;28;20055;-80
2022/02/17 04:51:08;;;;;;;27.38;4.82;;;8.30;99.90;;;;;;5122447;27;20039;-80
2022/02/17 04:53:34;;;;;;;23.58;4.05;;;8.40;99.90;;;;;;5104911;28;20050;-80
2022/02/17 04:55:59;;;;;;;28.27;4.07;;;8.30;99.90;;;;;;5124059;27;20126;-80
2022/02/17 04:58:25;;;;;;;23.23;4.10;;;8.40;99.90;;;;;;5090959;28;20139;-80
2022/02/17 05:00:51;;;;;;;24.85;3.60;;;8.50;99.90;;;;;;5088459;28;20510;-80
2022/02/17 05:03:17;;;;;;;19.88;3.88;;;8.40;99.90;;;;;;5089054;28;20477;-80
2022/02/17 05:05:44;;;;;;;22.92;4.00;;;8.40;99.90;;;;;;5080761;28;20365;-81
2022/02/17 05:08:09;;;;;;;31.83;4.05;;;8.60;99.90;;;;;;5114512;27;20044;-80
2022/02/17 05:10:35;;;;;;;21.88;4.43;;;8.50;99.90;;;;;;5070727;28;20042;-81
2022/02/17 05:13:01;;;;;;;31.48;4.00;;;8.30;99.90;;;;;;5121824;27;20432;-81
2022/02/17 05:15:27;;;;;;;30.90;4.53;;;8.60;99.90;;;;;;5070778;28;20051;-80
2022/02/17 05:17:53;;;;;;;23.52;3.53;;;8.30;99.90;;;;;;5083133;28;20392;-80
2022/02/17 05:20:19;;;;;;;20.38;3.58;;;8.30;99.90;;;;;;5084459;28;20036;-80
2022/02/17 05:22:45;;;;;;;25.30;4.07;;;8.30;99.90;;;;;;5102969;28;20048;-80
2022/02/17 05:25:12;;;;;;;26.98;3.53;;;8.30;99.90;;;;;;5076910;28;20047;-80
2022/02/17 05:27:39;;;;;;;28.20;3.97;;;8.50;99.90;;;;;;5088689;28;20108;-80
2022/02/17 05:30:05;;;;;;;20.55;3.90;;;8.20;99.90;;;;;;5069298;28;20161;-80
2022/02/17 05:32:31;;;;;;;26.88;4.00;;;8.30;99.90;;;;;;5117885;27;20052;-80
2022/02/17 05:34:57;;;;;;;24.40;4.20;;;8.30;99.90;;;;;;5092839;28;20041;-80
2022/02/17 05:37:23;;;;;;;28.55;4.18;;;8.20;99.90;;;;;;5088465;28;20101;-80
2022/02/17 05:39:48;;;;;;;25.40;3.97;;;8.20;99.90;;;;;;5083875;28;20074;-80
2022/02/17 05:42:14;;;;;;;31.92;4.95;;;8.30;99.90;;;;;;5081178;28;20108;-80
2022/02/17 05:44:39;;;;;;;22.58;3.30;;;8.20;99.90;;;;;;5068582;28;20142;-80
2022/02/17 05:47:06;;;;;;;28.27;3.83;;;8.30;99.90;;;;;;5070956;28;20109;-80
2022/02/17 05:49:32;;;;;;;29.83;4.43;;;8.20;99.90;;;;;;5065657;28;20107;-80
2022/02/17 05:51:58;;;;;;;27.60;3.75;;;8.30;99.90;;;;;;5081878;28;20123;-80
2022/02/17 05:54:23;;;;;;;26.00;3.75;;;8.20;99.90;;;;;;5067836;28;20074;-79
2022/02/17 05:56:49;;;;;;;17.73;2.92;;;8.20;99.90;;;;;;5086005;28;20039;-81
2022/02/17 05:59:14;;;;;;;23.05;3.47;;;8.20;99.90;;;;;;5121656;27;20102;-80
2022/02/17 06:01:40;;;;;;;24.60;3.72;;;8.30;99.90;;;;;;5119345;27;20530;-80
2022/02/17 06:04:06;;;;;;;31.55;4.60;;;8.30;99.90;;;;;;5083488;28;20117;-81
2022/02/17 06:06:36;;;;;;;33.05;4.40;;;8.40;99.90;;;;;;5119820;27;20051;-80
2022/02/17 06:09:03;;;;;;;13.73;3.05;;;8.30;99.90;;;;;;5085754;28;22044;-81
2022/02/17 06:11:28;;;;;;;25.13;4.13;;;8.20;99.90;;;;;;5086114;28;20036;-81
2022/02/17 06:13:54;;;;;;;26.85;4.45;;;8.30;99.90;;;;;;5070405;28;20123;-81
2022/02/17 06:16:20;;;;;;;23.70;3.75;;;8.20;99.90;;;;;;5085703;28;20348;-81
2022/02/17 06:18:45;;;;;;;22.15;3.45;;;8.20;99.90;;;;;;5084796;28;20039;-80
2022/02/17 06:21:11;;;;;;;28.30;4.15;;;8.10;99.90;;;;;;5085212;28;20051;-82
2022/02/17 06:23:36;;;;;;;25.77;4.35;;;8.00;99.90;;;;;;5083538;28;20800;-79
2022/02/17 06:26:10;;;;;;;22.30;4.13;;;8.10;99.90;;;;;;5061267;28;20039;-82
2022/02/17 06:28:36;;;;;;;33.95;4.72;;;8.10;99.90;;;;;;5095620;28;20085;-81
2022/02/17 06:31:02;;;;;;;18.95;3.63;;;8.10;99.90;;;;;;5084601;28;20071;-81
2022/02/17 06:33:28;;;;;;;24.42;4.68;;;8.00;99.90;;;;;;5074408;28;20064;-81
2022/02/17 06:35:54;;;;;;;30.58;4.47;;;8.60;99.90;;;;;;5120714;27;20055;-83
2022/02/17 06:38:26;;;;;;;29.02;4.15;;;8.00;99.90;;;;;;5067709;28;20066;-83
2022/02/17 06:40:52;;;;;;;30.33;4.30;;;8.00;99.90;;;;;;5069439;28;20387;-82
2022/02/17 06:43:19;;;;;;;20.92;3.42;;;8.00;99.90;;;;;;5089489;28;20059;-81
2022/02/17 06:45:45;;;;;;;24.73;3.47;;;8.10;99.90;;;;;;5120818;27;20085;-79
2022/02/17 06:48:11;;;;;;;23.52;3.97;;;8.00;99.90;;;;;;5087732;28;20028;-79
2022/02/17 06:50:37;;;;;;;28.33;3.80;;;8.10;99.90;;;;;;5089619;28;20032;-81
2022/02/17 06:53:03;;;;;;;23.65;4.00;;;8.10;99.90;;;;;;5089139;28;20071;-82
2022/02/17 06:55:28;;;;;;;19.92;3.10;;;8.20;99.90;;;;;;5069053;28;20091;-81
2022/02/17 06:57:54;;;;;;;31.00;4.90;;;8.10;99.90;;;;;;5069222;28;20054;-82
2022/02/17 07:00:21;;;;;;;24.23;4.00;;;8.00;99.90;;;;;;5092466;28;20051;-82
2022/02/17 07:02:50;;;;;;;23.95;3.92;;;8.50;99.90;;;;;;5075847;28;20066;-82
2022/02/17 07:05:18;;;;;;;19.80;3.47;;;8.00;99.90;;;;;;5079470;28;20040;-81
2022/02/17 07:07:44;;;;;;;25.17;4.18;;;7.90;99.90;;;;;;5087209;28;20048;-82
2022/02/17 07:10:14;;;;;;;32.88;4.95;;;7.90;99.90;;;;;;5089800;28;20036;-83
2022/02/17 07:12:43;;;;;;;26.33;4.18;;;8.00;99.90;;;;;;5071316;28;20040;-82
2022/02/17 07:15:12;;;;;;;31.85;4.55;;;7.90;99.90;;;;;;5075001;28;20416;-78
2022/02/17 07:17:39;;;;;;;26.98;4.10;;;8.40;99.90;;;;;;5053542;28;20127;-82
2022/02/17 07:20:06;;;;;;;21.08;3.47;;;7.90;99.90;;;;;;5072820;28;20068;-81
2022/02/17 07:22:31;;;;;;;30.58;4.28;;;7.90;99.90;;;;;;5052001;28;20037;-82
2022/02/17 07:24:57;;;;;;;37.75;4.40;;;8.00;99.90;;;;;;5053517;28;20036;-81
2022/02/17 07:27:23;;;;;;;26.92;3.97;;;8.80;99.90;;;;;;5052481;28;20333;-79
2022/02/17 07:29:48;;;;;;;24.70;3.38;;;8.50;99.90;;;;;;5049147;28;20028;-79
2022/02/17 07:32:15;;;;;;;22.40;3.58;;;7.80;99.90;;;;;;5073406;28;20043;-79
2022/02/17 07:34:41;;;;;;;26.52;3.92;;;7.80;99.90;;;;;;5106525;28;20039;-79
2022/02/17 07:37:07;;;;;;;20.77;3.17;;;7.80;99.90;;;;;;5073316;28;20040;-79
2022/02/17 07:39:33;;;;;;;24.33;3.72;;;7.90;99.90;;;;;;5055534;28;20359;-81
2022/02/17 07:41:59;;;;;;;18.98;2.75;;;7.90;99.90;;;;;;5085797;28;20067;-80
2022/02/17 07:44:26;;;;;;;25.88;3.80;;;7.80;99.90;;;;;;5053756;28;20032;-78
2022/02/17 07:46:57;;;;;;;24.65;3.42;;;7.90;99.90;;;;;;5068712;28;20044;-83
2022/02/17 07:49:23;;;;;;;39.17;3.50;;;7.90;99.90;;;;;;5071277;28;20051;-78
2022/02/17 07:51:48;;;;;;;30.17;3.67;;;7.90;99.90;;;;;;5071201;28;20108;-77
2022/02/17 07:54:14;;;;;;;29.08;3.33;;;7.90;99.90;;;;;;5055462;28;20054;-78
2022/02/17 07:56:40;;;;;;;21.40;2.83;;;7.90;99.90;;;;;;5082550;28;20049;-74
2022/02/17 07:59:05;;;;;;;27.27;4.43;;;7.90;99.90;;;;;;5085176;28;20510;-77
2022/02/17 08:01:31;;;;;;;29.77;3.97;;;7.90;99.90;;;;;;5069563;28;20056;-78
2022/02/17 08:03:57;;;;;;;18.98;2.95;;;7.80;99.90;;;;;;5082004;28;20419;-79
2022/02/17 08:06:23;;;;;;;22.90;3.30;;;7.90;99.90;;;;;;5090137;28;20060;-79
2022/02/17 08:08:50;;;;;;;24.80;3.85;;;7.80;99.90;;;;;;5086071;28;20231;-81
2022/02/17 08:11:21;;;;;;;29.17;4.50;;;7.80;99.90;;;;;;5118477;27;20036;-81
2022/02/17 08:13:47;;;;;;;25.65;4.07;;;7.90;99.90;;;;;;5066275;28;20143;-82
2022/02/17 08:16:13;;;;;;;20.98;3.03;;;7.80;99.90;;;;;;5104866;28;20427;-84
2022/02/17 08:18:41;;;;;;;23.00;3.65;;;7.80;99.90;;;;;;5068191;28;20494;-81
2022/02/17 08:21:08;;;;;;;23.63;3.53;;;7.80;99.90;;;;;;5083770;28;20048;-81
2022/02/17 08:23:51;;;;;;;;;;;;;;;;;;;;;
2022/02/17 08:27:00;;;;;;;;;;;;;;;;;;;;;
2022/02/17 08:30:10;;;;;;;26.92;3.90;;;7.70;99.90;;;;;;5044743;28;20099;-82
2022/02/17 08:33:08;;;;;;;24.95;4.10;;;7.70;99.90;;;;;;4984627;28;20049;-79
2022/02/17 08:35:34;;;;;;;21.00;3.60;;;8.50;99.90;;;;;;5026200;28;20061;-80
2022/02/17 08:41:27;;;;;;;20.02;3.17;;;7.70;99.90;;;;;;5021531;28;20045;-78
2022/02/17 08:43:53;;;;;;;31.58;4.38;;;7.30;99.90;;;;;;5010389;28;20045;-78
2022/02/17 08:46:29;;;;;;;23.08;4.30;;;8.50;99.90;;;;;;5027678;28;20050;-77
2022/02/17 08:49:00;;;;;;;19.63;3.00;;;7.70;99.90;;;;;;4994190;28;20405;-77
2022/02/17 08:51:29;;;;;;;24.73;3.28;;;7.70;99.90;;;;;;5010780;28;20154;-78
2022/02/17 08:54:10;;;;;;;26.05;4.15;;;8.60;99.90;;;;;;5007836;28;20057;-80
2022/02/17 08:56:38;;;;;;;22.08;4.15;;;7.70;99.90;;;;;;5009541;28;20499;-80
2022/02/17 08:59:20;;;;;;;25.23;3.70;;;8.60;99.90;;;;;;5006743;28;20160;-80
2022/02/17 09:01:55;;;;;;;25.33;3.53;;;7.90;99.90;;;;;;5035392;28;20107;-80
2022/02/17 09:04:23;;;;;;;21.30;3.38;;;7.80;99.90;;;;;;5023721;28;20145;-81
2022/02/17 09:06:52;;;;;;;24.52;3.42;;;7.70;99.90;;;;;;5056008;28;20072;-78
2022/02/17 09:09:18;;;;;;;24.90;3.72;;;7.80;99.90;;;;;;5061447;28;20134;-82
2022/02/17 09:11:44;;;;;;;35.15;4.55;;;7.70;99.90;;;;;;5086147;28;20177;-80
2022/02/17 09:14:09;;;;;;;22.13;3.67;;;7.80;99.90;;;;;;5070606;28;20048;-80
2022/02/17 09:16:35;;;;;;;21.00;3.42;;;7.80;99.90;;;;;;5074580;28;20137;-80
2022/02/17 09:19:03;;;;;;;21.58;3.10;;;7.90;99.90;;;;;;5061535;28;20113;-79
2022/02/17 09:21:30;;;;;;;17.15;2.90;;;7.80;99.90;;;;;;5103882;28;20345;-79
2022/02/17 09:23:55;;;;;;;27.60;4.00;;;7.90;99.90;;;;;;5075911;28;20043;-79
2022/02/17 09:26:21;;;;;;;20.85;3.05;;;7.90;99.90;;;;;;5086216;28;20044;-79
2022/02/17 09:28:48;;;;;;;21.85;4.30;;;7.80;99.90;;;;;;5074036;28;20058;-79
2022/02/17 09:31:23;;;;;;;24.23;3.83;;;7.90;99.90;;;;;;5083622;28;20036;-79
2022/02/17 09:33:50;;;;;;;23.95;4.00;;;7.90;99.90;;;;;;5074158;28;20046;-79
2022/02/17 09:36:17;;;;;;;28.48;4.22;;;8.10;99.90;;;;;;5081743;28;20052;-80
2022/02/17 09:38:43;;;;;;;28.88;4.38;;;8.00;99.90;;;;;;5084825;28;20040;-80
2022/02/17 09:41:10;;;;;;;23.58;3.85;;;8.00;99.90;;;;;;5054239;28;20105;-78
2022/02/17 09:43:38;;;;;;;20.52;3.42;;;8.00;99.90;;;;;;5062402;28;20048;-80
2022/02/17 09:46:04;;;;;;;19.75;3.67;;;8.00;99.90;;;;;;5061240;28;20605;-80
2022/02/17 09:48:31;;;;;;;11.52;2.30;;;8.10;99.90;;;;;;5084376;28;20044;-80
2022/02/17 09:50:57;;;;;;;17.80;3.53;;;8.10;99.90;;;;;;5112027;27;20048;-79
2022/02/17 09:53:23;;;;;;;21.75;3.22;;;8.10;99.90;;;;;;5103440;28;20040;-79
2022/02/17 09:55:49;;;;;;;15.73;3.30;;;8.10;99.90;;;;;;5070675;28;20037;-80
2022/02/17 09:58:15;;;;;;;21.95;3.33;;;8.20;99.90;;;;;;5077974;28;20386;-80
2022/02/17 10:00:42;;;;;;;34.17;4.50;;;8.20;99.90;;;;;;5072541;28;20118;-80
2022/02/17 10:03:29;;;;;;;19.67;3.13;;;8.20;99.90;;;;;;5124775;27;20122;-80
2022/02/17 10:06:10;;;;;;;17.95;2.60;;;8.30;99.90;;;;;;5124401;27;20076;-80
2022/02/17 10:08:37;;;;;;;25.27;3.65;;;8.30;99.90;;;;;;5083611;28;20210;-79
2022/02/17 10:11:04;;;;;;;22.88;3.45;;;8.20;99.90;;;;;;5084059;28;20105;-80
2022/02/17 10:13:31;;;;;;;20.40;2.75;;;8.30;99.90;;;;;;5063053;28;20055;-79
2022/02/17 10:15:58;;;;;;;25.35;3.33;;;8.40;99.90;;;;;;5078838;28;20040;-79
2022/02/17 10:18:30;;;;;;;28.00;4.32;;;8.40;99.90;;;;;;5068157;28;20044;-79
2022/02/17 10:21:09;;;;;;;23.15;2.95;;;8.40;99.90;;;;;;5068307;28;20046;-79
2022/02/17 10:23:42;;;;;;;32.08;4.40;;;8.40;99.90;;;;;;5079336;28;20044;-79
2022/02/17 10:26:28;;;;;;;22.73;3.33;;;8.50;99.90;;;;;;5079642;28;20036;-79
2022/02/17 10:29:01;;;;;;;23.85;3.30;;;8.50;99.90;;;;;;5116765;28;20214;-79
2022/02/17 10:31:37;;;;;;;29.05;4.57;;;8.50;99.90;;;;;;5083828;28;20036;-79
2022/02/17 10:34:05;;;;;;;24.67;4.22;;;8.50;99.90;;;;;;5119375;28;20093;-80
2022/02/17 10:36:42;;;;;;;26.48;3.97;;;8.80;99.90;;;;;;5087458;28;20581;-79
2022/02/17 10:39:36;;;;;;;19.23;4.07;;;8.50;99.90;;;;;;5085305;28;20060;-79
2022/02/17 10:42:03;;;;;;;20.92;3.15;;;8.60;99.90;;;;;;5082549;28;20087;-79
2022/02/17 10:44:31;;;;;;;22.02;2.88;;;8.70;99.90;;;;;;5069479;28;20036;-80
2022/02/17 10:47:13;;;;;;;17.50;2.60;;;8.70;99.90;;;;;;5066205;28;20486;-78
2022/02/17 10:49:44;;;;;;;24.75;3.65;;;8.70;99.90;;;;;;5087996;28;20036;-79
2022/02/17 10:52:10;;;;;;;15.93;2.75;;;8.80;99.90;;;;;;5067937;28;20044;-79
2022/02/17 10:54:35;;;;;;;26.83;3.60;;;8.80;99.90;;;;;;5114149;28;20321;-79
2022/02/17 10:57:06;;;;;;;31.88;4.50;;;8.90;99.90;;;;;;5081871;28;20168;-79
2022/02/17 11:02:22;;;;;;;28.42;4.00;;;8.90;99.90;;;;;;5083545;28;20075;-78
2022/02/17 11:04:49;;;;;;;14.43;2.63;;;8.90;99.90;;;;;;5076447;28;20051;-78
2022/02/17 11:07:17;;;;;;;23.95;3.65;;;8.90;99.90;;;;;;5081636;28;20037;-78
2022/02/17 11:09:45;;;;;;;30.77;4.32;;;9.00;99.90;;;;;;5072842;28;20040;-79
2022/02/17 11:12:11;;;;;;;21.77;3.78;;;9.10;99.90;;;;;;5061344;28;20365;-79
2022/02/17 11:14:40;;;;;;;15.95;3.22;;;9.10;99.90;;;;;;5085445;28;20047;-78
2022/02/17 11:17:23;;;;;;;;;;;;;;;;;;;;;
2022/02/17 11:19:49;;;;;;;28.00;3.20;;;9.10;99.90;;;;;;5083830;28;20067;-80
2022/02/17 11:22:16;;;;;;;23.25;3.08;;;9.20;99.90;;;;;;5070919;28;20534;-79
2022/02/17 11:24:50;;;;;;;23.52;4.00;;;9.20;99.90;;;;;;5063088;28;20105;-81
2022/02/17 11:27:15;;;;;;;29.52;4.05;;;9.30;99.90;;;;;;5082948;28;20032;-81
2022/02/17 11:29:42;;;;;;;17.75;3.60;;;9.30;99.90;;;;;;5096868;28;20447;-81
2022/02/17 11:32:13;;;;;;;20.00;3.70;;;9.30;99.90;;;;;;5115931;27;20044;-82
2022/02/17 11:34:49;;;;;;;10.90;2.47;;;9.40;99.90;;;;;;5074777;28;20364;-80
2022/02/17 11:37:30;;;;;;;16.40;2.35;;;9.40;99.90;;;;;;5087353;28;20036;-80
2022/02/17 11:40:09;;;;;;;22.38;3.25;;;9.50;99.90;;;;;;5062896;28;20059;-80
2022/02/17 11:42:44;;;;;;;15.93;3.22;;;9.50;99.90;;;;;;5119250;27;20691;-80
2022/02/17 11:45:16;;;;;;;17.92;2.88;;;9.40;99.90;;;;;;5104229;28;20036;-80
2022/02/17 11:48:06;;;;;;;14.13;2.90;;;9.50;99.90;;;;;;5078890;28;20041;-78
2022/02/17 11:50:45;;;;;;;20.10;3.55;;;9.50;99.90;;;;;;5072716;28;20032;-77
2022/02/17 11:53:28;;;;;;;19.95;3.20;;;9.80;99.90;;;;;;5082550;28;20039;-77
2022/02/17 11:56:20;;;;;;;15.45;2.85;;;9.60;99.90;;;;;;5064586;28;20064;-77
2022/02/17 11:58:49;;;;;;;23.10;3.58;;;9.60;99.90;;;;;;5071888;28;20048;-78
2022/02/17 12:01:27;;;;;;;13.60;2.80;;;9.60;99.90;;;;;;5126267;27;20134;-78
2022/02/17 12:04:29;;;;;;;20.10;3.13;;;9.70;99.90;;;;;;5109589;28;20139;-78
2022/02/17 12:07:06;;;;;;;19.40;2.65;;;9.70;99.90;;;;;;5127949;27;20131;-79
2022/02/17 12:09:47;;;;;;;22.70;3.22;;;9.70;99.90;;;;;;5066771;28;20532;-79
2022/02/17 12:12:15;;;;;;;16.95;2.50;;;9.70;99.90;;;;;;5071742;28;20405;-78
2022/02/17 12:14:52;;;;;;;23.17;3.80;;;9.70;99.90;;;;;;5087074;28;20043;-79
2022/02/17 12:17:38;;;;;;;23.23;3.75;;;9.60;99.90;;;;;;5085157;28;20060;-78
2022/02/17 12:20:17;;;;;;;13.45;2.53;;;9.70;99.90;;;;;;5065889;28;20051;-78
2022/02/17 12:23:02;;;;;;;22.15;3.15;;;9.70;99.90;;;;;;5121979;27;20395;-78
2022/02/17 12:25:38;;;;;;;14.25;2.35;;;9.90;99.90;;;;;;5086158;28;20043;-78
2022/02/17 12:28:12;;;;;;;13.35;2.40;;;9.90;99.90;;;;;;5081795;28;20038;-80
2022/02/17 12:30:42;;;;;;;18.33;2.67;;;9.80;99.90;;;;;;5088638;28;20213;-77
2022/02/17 12:33:07;;;;;;;18.83;3.35;;;10.10;99.90;;;;;;5071363;28;20447;-79
2022/02/17 12:35:34;;;;;;;18.23;3.33;;;9.90;99.90;;;;;;5092320;28;20051;-79
2022/02/17 12:38:01;;;;;;;15.73;3.17;;;9.80;99.90;;;;;;5071694;28;20043;-78
2022/02/17 12:40:29;;;;;;;14.63;3.05;;;9.90;99.90;;;;;;5093012;28;20046;-79
2022/02/17 12:42:55;;;;;;;18.60;3.10;;;10.00;99.90;;;;;;5092075;28;20071;-78
2022/02/17 12:45:36;;;;;;;12.70;2.15;;;9.90;99.90;;;;;;5092236;28;20071;-81
2022/02/17 12:48:02;;;;;;;11.95;2.10;;;9.80;99.90;;;;;;5075275;28;20112;-81
2022/02/17 12:50:28;;;;;;;18.92;3.22;;;9.80;99.90;;;;;;5092080;28;20044;-79
2022/02/17 12:52:55;;;;;;;15.98;3.00;;;9.80;99.90;;;;;;5091391;28;20040;-80
2022/02/17 12:55:21;;;;;;;15.35;2.92;;;9.90;99.90;;;;;;5105954;28;20567;-77
2022/02/17 12:57:53;;;;;;;14.15;2.47;;;9.90;99.90;;;;;;5094186;28;20170;-79
2022/02/17 13:00:19;;;;;;;11.45;2.30;;;10.10;99.90;;;;;;5094451;28;20160;-79
2022/02/17 13:02:46;;;;;;;14.07;2.58;;;10.10;99.90;;;;;;5093513;28;20110;-79
2022/02/17 13:05:14;;;;;;;15.82;2.35;;;9.90;99.90;;;;;;5107877;28;20743;-78